createdAt,value
2018-02-09T00:00:44.924Z,101314.70
2018-02-09T00:03:15.905Z,101307.91
2018-02-09T00:05:44.285Z,101314.30
2018-02-09T00:08:19.388Z,101308.53
2018-02-09T00:10:47.693Z,101316.27
2018-02-09T00:13:16.140Z,101314.00
2018-02-09T00:15:44.456Z,101301.56
2018-02-09T00:18:16.177Z,101308.16
2018-02-09T00:20:44.509Z,101308.07
2018-02-09T00:23:16.030Z,101305.34
2018-02-09T00:25:44.341Z,101306.06
2018-02-09T00:28:16.075Z,101307.05
2018-02-09T00:30:48.816Z,101304.25
2018-02-09T00:33:17.121Z,101299.64
2018-02-09T00:35:45.400Z,101298.98
2018-02-09T00:38:18.208Z,101300.87
2018-02-09T00:40:46.840Z,101298.84
2018-02-09T00:43:16.592Z,101296.15
2018-02-09T00:45:44.886Z,101291.97
2018-02-09T00:48:17.019Z,101290.95
2018-02-09T00:50:45.527Z,101285.39
2018-02-09T00:53:17.673Z,101284.34
2018-02-09T00:55:45.977Z,101283.61
2018-02-09T00:58:15.872Z,101286.60
2018-02-09T01:00:44.202Z,101290.14
2018-02-09T01:03:15.744Z,101292.57
2018-02-09T01:05:44.515Z,101291.84
2018-02-09T01:08:15.998Z,101287.47
2018-02-09T01:10:44.290Z,101282.78
2018-02-09T01:13:19.332Z,101285.39
2018-02-09T01:15:47.878Z,101275.55
2018-02-09T01:18:16.628Z,101281.75
2018-02-09T01:20:44.913Z,101284.45
2018-02-09T01:23:15.916Z,101282.50
2018-02-09T01:25:44.364Z,101277.76
2018-02-09T01:28:15.704Z,101273.52
2018-02-09T01:30:43.997Z,101268.80
2018-02-09T01:33:15.417Z,101277.52
2018-02-09T01:35:43.703Z,101270.66
2018-02-09T01:38:15.357Z,101273.43
2018-02-09T01:40:43.633Z,101272.30
2018-02-09T01:43:18.386Z,101269.55
2018-02-09T01:45:46.663Z,101271.17
2018-02-09T01:48:16.145Z,101270.04
2018-02-09T01:50:44.517Z,101271.84
2018-02-09T01:53:16.012Z,101276.20
2018-02-09T01:55:44.486Z,101270.25
2018-02-09T01:58:16.177Z,101266.59
2018-02-09T02:00:45.086Z,101263.08
2018-02-09T02:03:16.014Z,101261.86
2018-02-09T02:05:44.293Z,101263.52
2018-02-09T02:08:15.868Z,101256.15
2018-02-09T02:10:44.176Z,101256.99
2018-02-09T02:13:17.546Z,101251.03
2018-02-09T02:15:45.980Z,101244.64
2018-02-09T02:18:16.024Z,101244.50
2018-02-09T02:20:44.345Z,101241.70
2018-02-09T02:23:19.514Z,101241.94
2018-02-09T02:25:47.824Z,101232.94
2018-02-09T02:28:16.111Z,101234.31
2018-02-09T02:30:44.434Z,101234.31
2018-02-09T02:33:16.060Z,101234.16
2018-02-09T02:35:44.374Z,101234.94
2018-02-09T02:38:19.526Z,101227.47
2018-02-09T02:40:47.849Z,101227.09
2018-02-09T02:43:16.138Z,101223.87
2018-02-09T02:45:44.618Z,101224.20
2018-02-09T02:48:15.980Z,101219.98
2018-02-09T02:50:44.796Z,101221.44
2018-02-09T02:53:16.700Z,101228.16
2018-02-09T02:55:45.093Z,101225.14
2018-02-09T02:58:17.045Z,101226.02
2018-02-09T03:00:45.357Z,101219.61
2018-02-09T03:03:17.289Z,101216.19
2018-02-09T03:05:45.863Z,101207.13
2018-02-09T03:08:18.012Z,101210.20
2018-02-09T03:10:46.305Z,101211.59
2018-02-09T03:13:16.292Z,101209.06
2018-02-09T03:15:44.595Z,101203.81
2018-02-09T03:18:16.656Z,101206.00
2018-02-09T03:20:44.962Z,101203.02
2018-02-09T03:23:17.013Z,101192.30
2018-02-09T03:25:45.313Z,101189.63
2018-02-09T03:28:17.482Z,101188.06
2018-02-09T03:30:46.401Z,101185.87
2018-02-09T03:33:15.980Z,101178.63
2018-02-09T03:35:44.291Z,101180.28
2018-02-09T03:38:15.711Z,101176.83
2018-02-09T03:40:44.009Z,101178.98
2018-02-09T03:43:15.534Z,101177.95
2018-02-09T03:45:43.837Z,101177.84
2018-02-09T03:48:15.535Z,101168.03
2018-02-09T03:50:43.844Z,101172.86
2018-02-09T03:53:15.345Z,101157.77
2018-02-09T03:55:43.672Z,101156.98
2018-02-09T03:58:15.119Z,101157.72
2018-02-09T04:00:43.429Z,101152.17
2018-02-09T04:03:18.076Z,101149.63
2018-02-09T04:05:47.020Z,101147.86
2018-02-09T04:08:16.139Z,101150.84
2018-02-09T04:10:44.975Z,101142.02
2018-02-09T04:13:16.756Z,101143.58
2018-02-09T04:15:45.064Z,101135.84
2018-02-09T04:18:17.012Z,101145.68
2018-02-09T04:20:45.469Z,101138.75
2018-02-09T04:23:17.540Z,101140.48
2018-02-09T04:25:45.816Z,101138.13
2018-02-09T04:28:17.161Z,101141.61
2018-02-09T04:30:46.115Z,101143.00
2018-02-09T04:33:16.276Z,101138.55
2018-02-09T04:35:44.557Z,101141.09
2018-02-09T04:38:16.463Z,101131.98
2018-02-09T04:40:45.120Z,101126.47
2018-02-09T04:43:17.011Z,101134.52
2018-02-09T04:45:45.316Z,101124.53
2018-02-09T04:48:17.150Z,101119.76
2018-02-09T04:50:45.583Z,101121.94
2018-02-09T04:53:17.245Z,101123.64
2018-02-09T04:55:45.783Z,101132.09
2018-02-09T04:58:17.624Z,101128.06
2018-02-09T05:00:45.921Z,101122.97
2018-02-09T05:03:19.188Z,101125.06
2018-02-09T05:05:47.489Z,101122.97
2018-02-09T05:08:16.576Z,101120.84
2018-02-09T05:10:44.895Z,101122.91
2018-02-09T05:13:16.725Z,101123.45
2018-02-09T05:15:45.058Z,101131.77
2018-02-09T05:18:17.306Z,101122.16
2018-02-09T05:20:45.603Z,101115.31
2018-02-09T05:23:17.536Z,101126.17
2018-02-09T05:25:45.860Z,101125.90
2018-02-09T05:28:15.967Z,101121.05
2018-02-09T05:30:44.292Z,101121.48
2018-02-09T05:33:19.402Z,101123.18
2018-02-09T05:35:47.700Z,101120.22
2018-02-09T05:38:16.020Z,101122.20
2018-02-09T05:40:44.329Z,101120.67
2018-02-09T05:43:19.605Z,101112.00
2018-02-09T05:45:48.220Z,101109.17
2018-02-09T05:48:17.071Z,101111.41
2018-02-09T05:50:45.633Z,101117.84
2018-02-09T05:53:15.922Z,101120.00
2018-02-09T05:55:44.220Z,101110.05
2018-02-09T05:58:15.750Z,101106.80
2018-02-09T06:00:44.062Z,101103.59
2018-02-09T06:03:19.184Z,101105.05
2018-02-09T06:05:47.665Z,101099.17
2018-02-09T06:08:15.973Z,101094.40
2018-02-09T06:10:44.261Z,101095.01
2018-02-09T06:13:16.880Z,101087.80
2018-02-09T06:15:45.181Z,101080.75
2018-02-09T06:18:16.747Z,101079.56
2018-02-09T06:20:45.060Z,101087.87
2018-02-09T06:23:17.452Z,101079.22
2018-02-09T06:25:45.732Z,101072.66
2018-02-09T06:28:16.228Z,101071.89
2018-02-09T06:30:44.690Z,101071.89
2018-02-09T06:33:16.925Z,101070.77
2018-02-09T06:35:45.210Z,101066.29
2018-02-09T06:38:17.150Z,101067.09
2018-02-09T06:40:45.465Z,101071.37
2018-02-09T06:43:17.222Z,101073.79
2018-02-09T06:45:45.910Z,101078.49
2018-02-09T06:48:17.527Z,101072.33
2018-02-09T06:50:45.828Z,101067.03
2018-02-09T06:53:17.765Z,101063.30
2018-02-09T06:55:46.063Z,101070.83
2018-02-09T06:58:15.873Z,101068.62
2018-02-09T07:00:44.157Z,101070.63
2018-02-09T07:03:16.505Z,101075.58
2018-02-09T07:05:44.916Z,101066.63
2018-02-09T07:08:17.084Z,101080.86
2018-02-09T07:10:45.381Z,101081.88
2018-02-09T07:13:16.921Z,101085.58
2018-02-09T07:15:45.218Z,101081.03
2018-02-09T07:18:17.064Z,101076.81
2018-02-09T07:20:45.390Z,101072.93
2018-02-09T07:23:18.049Z,101077.39
2018-02-09T07:25:46.340Z,101075.66
2018-02-09T07:28:16.092Z,101081.34
2018-02-09T07:30:44.401Z,101080.91
2018-02-09T07:33:19.457Z,101087.13
2018-02-09T07:35:47.860Z,101090.39
2018-02-09T07:38:16.174Z,101092.22
2018-02-09T07:40:44.493Z,101094.25
2018-02-09T07:43:16.626Z,101085.73
2018-02-09T07:45:44.931Z,101081.14
2018-02-09T07:48:14.943Z,101076.36
2018-02-09T07:50:44.010Z,101070.23
2018-02-09T07:53:14.992Z,101068.16
2018-02-09T07:55:43.281Z,101066.48
2018-02-09T07:58:18.461Z,101066.55
2018-02-09T08:00:47.250Z,101060.89
2018-02-09T08:03:15.539Z,101053.23
2018-02-09T08:05:43.836Z,101048.89
2018-02-09T08:08:16.056Z,101047.75
2018-02-09T08:10:44.356Z,101041.70
2018-02-09T08:13:16.365Z,101039.44
2018-02-09T08:15:44.676Z,101039.98
2018-02-09T08:18:15.989Z,101029.86
2018-02-09T08:20:44.293Z,101033.05
2018-02-09T08:23:19.788Z,101030.00
2018-02-09T08:25:48.097Z,101020.98
2018-02-09T08:28:16.669Z,101019.99
2018-02-09T08:30:44.997Z,101015.63
2018-02-09T08:33:17.598Z,101000.45
2018-02-09T08:35:45.915Z,101004.52
2018-02-09T08:38:15.684Z,100996.50
2018-02-09T08:40:43.964Z,101005.81
2018-02-09T08:43:16.172Z,100991.88
2018-02-09T08:45:44.458Z,100996.66
2018-02-09T08:48:14.965Z,100984.83
2018-02-09T08:50:43.246Z,100984.25
2018-02-09T08:53:14.972Z,100989.42
2018-02-09T08:55:43.252Z,100987.94
2018-02-09T08:58:14.796Z,100984.14
2018-02-09T09:00:43.085Z,100977.41
2018-02-09T09:03:18.180Z,100984.38
2018-02-09T09:05:46.717Z,100984.12
2018-02-09T09:08:15.067Z,100976.31
2018-02-09T09:10:43.356Z,100969.44
2018-02-09T09:13:18.572Z,100965.20
2018-02-09T09:15:47.351Z,100960.48
2018-02-09T09:18:15.728Z,100958.41
2018-02-09T09:20:44.009Z,100953.81
2018-02-09T09:23:15.735Z,100962.73
2018-02-09T09:25:44.181Z,100956.47
2018-02-09T09:28:14.948Z,100951.94
2018-02-09T09:30:43.244Z,100958.31
2018-02-09T09:33:16.602Z,100944.14
2018-02-09T09:35:45.112Z,100947.53
2018-02-09T09:38:18.456Z,100945.78
2018-02-09T09:40:46.733Z,100951.16
2018-02-09T09:43:15.020Z,100937.91
2018-02-09T09:45:43.326Z,100945.82
2018-02-09T09:48:18.677Z,100936.70
2018-02-09T09:50:47.140Z,100933.40
2018-02-09T09:53:15.470Z,100932.70
2018-02-09T09:55:43.768Z,100933.06
2018-02-09T09:58:15.764Z,100925.85
2018-02-09T10:00:44.074Z,100920.65
2018-02-09T10:03:16.412Z,100922.61
2018-02-09T10:05:44.950Z,100922.16
2018-02-09T10:08:16.401Z,100922.39
2018-02-09T10:10:45.020Z,100909.95
2018-02-09T10:13:15.106Z,100909.52
2018-02-09T10:15:43.384Z,100912.83
2018-02-09T10:18:14.997Z,100908.13
2018-02-09T10:20:43.701Z,100914.55
2018-02-09T10:23:15.758Z,100928.83
2018-02-09T10:25:44.045Z,100918.62
2018-02-09T10:28:16.161Z,100911.77
2018-02-09T10:30:44.447Z,100915.30
2018-02-09T10:33:15.824Z,100916.11
2018-02-09T10:35:44.100Z,100909.30
2018-02-09T10:38:15.921Z,100913.12
2018-02-09T10:40:44.385Z,100908.53
2018-02-09T10:43:15.853Z,100907.46
2018-02-09T10:45:44.135Z,100902.06
2018-02-09T10:48:15.309Z,100902.89
2018-02-09T10:50:43.645Z,100895.62
2018-02-09T10:53:14.945Z,100892.38
2018-02-09T10:55:43.255Z,100884.84
2018-02-09T10:58:18.529Z,100888.95
2018-02-09T11:00:52.695Z,100886.84
2018-02-09T11:03:21.012Z,100887.10
2018-02-09T11:05:53.177Z,100875.64
2018-02-09T11:08:21.453Z,100876.23
2018-02-09T11:10:49.751Z,100885.03
2018-02-09T11:13:18.040Z,100875.11
2018-02-09T11:15:46.349Z,100869.95
2018-02-09T11:18:15.361Z,100873.20
2018-02-09T11:20:43.672Z,100879.23
2018-02-09T11:23:15.177Z,100863.84
2018-02-09T11:25:43.469Z,100866.19
2018-02-09T11:28:14.990Z,100871.20
2018-02-09T11:30:43.288Z,100864.97
2018-02-09T11:33:15.321Z,100856.56
2018-02-09T11:35:43.993Z,100852.67
2018-02-09T11:38:15.232Z,100851.33
2018-02-09T11:40:43.648Z,100846.70
2018-02-09T11:43:15.110Z,100841.66
2018-02-09T11:45:44.373Z,100836.70
2018-02-09T11:48:16.324Z,100838.83
2018-02-09T11:50:44.641Z,100825.14
2018-02-09T11:53:16.325Z,100826.50
2018-02-09T11:55:44.625Z,100830.58
2018-02-09T11:58:16.596Z,100823.48
2018-02-09T12:00:44.904Z,100835.39
2018-02-09T12:03:18.078Z,100849.83
2018-02-09T12:05:46.357Z,100834.36
2018-02-09T12:08:15.499Z,100844.77
2018-02-09T12:10:43.789Z,100839.59
2018-02-09T12:13:15.094Z,100841.52
2018-02-09T12:15:43.390Z,100831.02
2018-02-09T12:18:18.450Z,100828.52
2018-02-09T12:20:46.809Z,100834.03
2018-02-09T12:23:15.114Z,100825.42
2018-02-09T12:25:43.394Z,100828.89
2018-02-09T12:28:18.474Z,100829.84
2018-02-09T12:30:46.773Z,100818.55
2018-02-09T12:33:15.433Z,100818.39
2018-02-09T12:35:43.700Z,100819.31
2018-02-09T12:38:15.752Z,100804.02
2018-02-09T12:40:44.042Z,100815.77
2018-02-09T12:43:16.432Z,100803.70
2018-02-09T12:45:44.793Z,100803.77
2018-02-09T12:48:16.116Z,100800.92
2018-02-09T12:50:44.826Z,100803.41
2018-02-09T12:53:16.790Z,100797.85
2018-02-09T12:55:45.125Z,100784.64
2018-02-09T12:58:16.493Z,100798.36
2018-02-09T13:00:44.786Z,100787.25
2018-02-09T13:03:15.031Z,100784.69
2018-02-09T13:05:43.343Z,100774.23
2018-02-09T13:08:19.179Z,100766.78
2018-02-09T13:10:47.440Z,100762.14
2018-02-09T13:13:15.751Z,100779.80
2018-02-09T13:15:44.050Z,100771.19
2018-02-09T13:18:27.812Z,100773.02
2018-02-09T13:20:56.372Z,100768.06
2018-02-09T13:26:24.772Z,100755.52
2018-02-09T13:29:00.144Z,100756.24
2018-02-09T13:31:28.456Z,100745.78
2018-02-09T13:33:56.785Z,100755.48
2018-02-09T13:39:28.152Z,100738.03
2018-02-09T13:41:56.721Z,100731.59
2018-02-09T13:44:25.088Z,100743.41
2018-02-09T13:46:53.388Z,100741.77
2018-02-09T13:49:21.680Z,100750.06
2018-02-09T13:51:50.016Z,100750.52
2018-02-09T13:54:18.521Z,100753.95
2018-02-09T13:56:46.840Z,100742.14
2018-02-09T13:59:15.369Z,100758.87
2018-02-09T14:01:43.673Z,100755.13
2018-02-09T14:04:11.999Z,100757.09
2018-02-09T14:06:40.485Z,100737.03
2018-02-09T14:09:08.800Z,100743.28
2018-02-09T14:11:37.088Z,100742.28
2018-02-09T14:14:05.378Z,100751.20
2018-02-09T14:16:33.685Z,100762.52
2018-02-09T14:19:01.972Z,100762.27
2018-02-09T14:21:30.261Z,100753.27
2018-02-09T14:23:58.545Z,100750.69
2018-02-09T14:26:27.474Z,100751.67
2018-02-09T14:28:55.747Z,100747.50
2018-02-09T14:31:24.253Z,100750.42
2018-02-09T14:33:52.705Z,100756.31
2018-02-09T14:36:21.014Z,100748.96
2018-02-09T14:38:49.307Z,100748.53
2018-02-09T14:41:17.678Z,100745.13
2018-02-09T14:43:45.960Z,100743.61
2018-02-09T14:46:14.344Z,100745.60
2018-02-09T14:48:42.627Z,100752.48
2018-02-09T14:51:10.921Z,100739.59
2018-02-09T14:53:39.388Z,100740.64
2018-02-09T14:56:07.673Z,100742.22
2018-02-09T14:58:36.607Z,100744.09
2018-02-09T15:01:04.893Z,100730.17
2018-02-09T15:03:33.193Z,100742.41
2018-02-09T15:06:01.465Z,100744.07
2018-02-09T15:08:29.763Z,100736.44
2018-02-09T15:10:58.029Z,100740.75
2018-02-09T15:13:26.349Z,100737.05
2018-02-09T15:15:54.992Z,100744.27
2018-02-09T15:18:23.328Z,100747.03
2018-02-09T15:20:51.695Z,100749.91
2018-02-09T15:23:20.013Z,100750.59
2018-02-09T15:25:48.288Z,100750.22
2018-02-09T15:28:16.566Z,100755.77
2018-02-09T15:30:46.243Z,100753.64
2018-02-09T15:33:15.937Z,100750.09
2018-02-09T15:35:44.249Z,100755.32
2018-02-09T15:38:15.644Z,100745.73
2018-02-09T15:40:43.970Z,100745.06
2018-02-09T15:43:18.484Z,100749.03
2018-02-09T15:45:47.979Z,100742.08
2018-02-09T15:48:17.718Z,100740.77
2018-02-09T15:50:46.015Z,100741.38
2018-02-09T15:53:15.833Z,100745.84
2018-02-09T15:55:44.433Z,100740.69
2018-02-09T15:58:15.682Z,100746.27
2018-02-09T16:00:44.019Z,100746.97
2018-02-09T16:03:16.123Z,100744.60
2018-02-09T16:05:44.579Z,100738.86
2018-02-09T16:08:17.044Z,100748.39
2018-02-09T16:10:45.413Z,100746.27
2018-02-09T16:13:15.245Z,100747.47
2018-02-09T16:15:44.045Z,100746.45
2018-02-09T16:18:16.665Z,100736.77
2018-02-09T16:20:44.966Z,100726.56
2018-02-09T16:23:14.984Z,100749.70
2018-02-09T16:25:43.264Z,100741.18
2018-02-09T16:28:18.367Z,100742.66
2018-02-09T16:30:46.674Z,100746.27
2018-02-09T16:33:15.449Z,100686.05
2018-02-09T16:35:43.769Z,100742.42
2018-02-09T16:38:15.936Z,100750.90
2018-02-09T16:40:44.212Z,100748.78
2018-02-09T16:43:16.431Z,100746.59
2018-02-09T16:45:44.757Z,100741.72
2018-02-09T16:48:16.092Z,100739.56
2018-02-09T16:50:44.435Z,100740.62
2018-02-09T16:53:16.653Z,100744.24
2018-02-09T16:55:44.952Z,100742.16
2018-02-09T16:58:15.126Z,100739.20
2018-02-09T17:00:43.409Z,100730.92
2018-02-09T17:03:14.716Z,100734.12
2018-02-09T17:05:43.012Z,100734.86
2018-02-09T17:08:18.155Z,100733.61
2018-02-09T17:10:46.433Z,100731.91
2018-02-09T17:13:15.545Z,100741.23
2018-02-09T17:15:43.836Z,100741.31
2018-02-09T17:18:15.560Z,100746.52
2018-02-09T17:20:44.482Z,100746.94
2018-02-09T17:23:15.024Z,100749.50
2018-02-09T17:25:44.074Z,100750.50
2018-02-09T17:28:14.438Z,100752.22
2018-02-09T17:30:42.740Z,100752.81
2018-02-09T17:33:15.855Z,100753.11
2018-02-09T17:35:44.777Z,100755.42
2018-02-09T17:38:14.925Z,100761.47
2018-02-09T17:40:43.229Z,100759.17
2018-02-09T17:43:14.474Z,100761.42
2018-02-09T17:45:42.759Z,100765.91
2018-02-09T17:48:18.037Z,100755.55
2018-02-09T17:50:46.333Z,100759.47
2018-02-09T17:53:14.652Z,100762.65
2018-02-09T17:55:43.857Z,100765.14
2018-02-09T17:58:15.717Z,100759.35
2018-02-09T18:00:44.608Z,100758.53
2018-02-09T18:03:17.613Z,100755.77
2018-02-09T18:05:45.913Z,100750.50
2018-02-09T18:08:15.707Z,100756.41
2018-02-09T18:10:44.148Z,100764.34
2018-02-09T18:13:15.856Z,100759.77
2018-02-09T18:15:44.171Z,100764.34
2018-02-09T18:18:15.352Z,100767.05
2018-02-09T18:20:43.666Z,100764.72
2018-02-09T18:23:15.880Z,100764.30
2018-02-09T18:25:44.185Z,100764.11
2018-02-09T18:28:16.152Z,100771.14
2018-02-09T18:30:44.463Z,100769.77
2018-02-09T18:33:14.588Z,100770.53
2018-02-09T18:35:43.646Z,100767.31
2018-02-09T18:38:15.392Z,100770.17
2018-02-09T18:40:43.714Z,100768.28
2018-02-09T18:43:15.738Z,100769.42
2018-02-09T18:45:44.468Z,100727.42
2018-02-09T18:48:14.599Z,100775.13
2018-02-09T18:50:42.896Z,100771.70
2018-02-09T18:53:14.708Z,100769.73
2018-02-09T18:55:43.029Z,100775.83
2018-02-09T18:58:16.993Z,100779.67
2018-02-09T19:00:45.467Z,100779.60
2018-02-09T19:03:16.131Z,100782.84
2018-02-09T19:05:44.537Z,100777.49
2018-02-09T19:08:16.673Z,100775.31
2018-02-09T19:10:44.978Z,100776.50
2018-02-09T19:13:14.571Z,100773.97
2018-02-09T19:15:42.878Z,100773.77
2018-02-09T19:18:16.119Z,100780.17
2018-02-09T19:20:44.425Z,100784.38
2018-02-09T19:23:16.376Z,100783.22
2018-02-09T19:25:44.697Z,100794.33
2018-02-09T19:28:17.208Z,100796.21
2018-02-09T19:30:45.536Z,100800.11
2018-02-09T19:33:15.020Z,100795.95
2018-02-09T19:35:43.322Z,100796.95
2018-02-09T19:38:14.558Z,100795.10
2018-02-09T19:40:42.873Z,100793.91
2018-02-09T19:43:14.708Z,100796.76
2018-02-09T19:45:43.493Z,100797.85
2018-02-09T19:48:15.340Z,100795.02
2018-02-09T19:50:43.641Z,100801.27
2018-02-09T19:53:15.363Z,100796.48
2018-02-09T19:55:43.641Z,100798.58
2018-02-09T19:58:15.186Z,100800.99
2018-02-09T20:00:43.466Z,100806.26
2018-02-09T20:03:15.040Z,100798.59
2018-02-09T20:05:43.330Z,100800.66
2018-02-09T20:08:14.773Z,100799.37
2018-02-09T20:10:43.150Z,100794.34
2018-02-09T20:13:14.836Z,100797.58
2018-02-09T20:15:43.143Z,100807.48
2018-02-09T20:18:14.673Z,100802.84
2018-02-09T20:20:42.970Z,100805.36
2018-02-09T20:23:18.238Z,100800.99
2018-02-09T20:25:46.544Z,100789.83
2018-02-09T20:28:14.824Z,100796.45
2018-02-09T20:30:43.147Z,100796.95
2018-02-09T20:33:14.802Z,100801.87
2018-02-09T20:35:43.292Z,100795.22
2018-02-09T20:38:14.686Z,100784.40
2018-02-09T20:40:43.004Z,100801.08
2018-02-09T20:43:16.009Z,100793.94
2018-02-09T20:45:44.345Z,100798.73
2018-02-09T20:48:15.606Z,100796.29
2018-02-09T20:50:44.198Z,100784.28
2018-02-09T20:53:15.400Z,100796.39
2018-02-09T20:55:43.699Z,100792.44
2018-02-09T20:58:14.813Z,100795.10
2018-02-09T21:00:43.137Z,100796.92
2018-02-09T21:03:14.869Z,100798.10
2018-02-09T21:05:43.160Z,100792.26
2018-02-09T21:08:17.095Z,100798.03
2018-02-09T21:10:45.417Z,100796.98
2018-02-09T21:13:14.568Z,100793.94
2018-02-09T21:15:42.922Z,100791.32
2018-02-09T21:18:14.671Z,100798.28
2018-02-09T21:20:42.996Z,100796.17
2018-02-09T21:23:14.874Z,100797.97
2018-02-09T21:25:43.226Z,100795.74
2018-02-09T21:28:14.990Z,100797.85
2018-02-09T21:30:43.460Z,100804.77
2018-02-09T21:33:14.651Z,100799.91
2018-02-09T21:35:43.047Z,100795.61
2018-02-09T21:38:15.008Z,100803.00
2018-02-09T21:40:43.616Z,100801.03
2018-02-09T21:43:15.641Z,100806.02
2018-02-09T21:45:44.016Z,100806.00
2018-02-09T21:48:15.419Z,100803.89
2018-02-09T21:50:43.729Z,100799.41
2018-02-09T21:53:16.061Z,100799.89
2018-02-09T21:55:44.652Z,100798.02
2018-02-09T21:58:14.547Z,100798.84
2018-02-09T22:00:42.846Z,100794.50
2018-02-09T22:03:14.753Z,100795.41
2018-02-09T22:05:43.059Z,100795.60
2018-02-09T22:08:15.200Z,100800.58
2018-02-09T22:10:43.509Z,100795.67
2018-02-09T22:13:14.890Z,100787.03
2018-02-09T22:15:43.188Z,100796.72
2018-02-09T22:18:15.229Z,100801.31
2018-02-09T22:20:43.544Z,100796.41
2018-02-09T22:23:14.872Z,100796.59
2018-02-09T22:25:47.414Z,100805.88
2018-02-09T22:28:19.959Z,100801.34
2018-02-09T22:30:48.924Z,100804.62
2018-02-09T22:33:17.235Z,100802.89
2018-02-09T22:35:45.521Z,100808.86
2018-02-09T22:38:15.230Z,100806.48
2018-02-09T22:40:44.777Z,100809.11
2018-02-09T22:43:16.282Z,100812.41
2018-02-09T22:45:45.713Z,100817.45
2018-02-09T22:48:16.483Z,100809.06
2018-02-09T22:50:46.615Z,100810.55
2018-02-09T22:53:17.658Z,100806.00
2018-02-09T22:55:48.141Z,100814.27
2018-02-09T22:58:18.464Z,100809.34
2018-02-09T23:00:48.248Z,100815.15
2018-02-09T23:03:16.927Z,100819.06
2018-02-09T23:05:45.239Z,100814.04
2018-02-09T23:08:16.624Z,100812.16
2018-02-09T23:10:46.430Z,100810.91
2018-02-09T23:13:16.824Z,100813.65
2018-02-09T23:15:46.688Z,100814.58
2018-02-09T23:18:17.444Z,100819.80
2018-02-09T23:20:46.611Z,100813.72
2018-02-09T23:23:16.397Z,100813.97
2018-02-09T23:25:46.392Z,100813.17
2018-02-09T23:28:14.867Z,100813.45
2018-02-09T23:30:48.833Z,100820.17
2018-02-09T23:33:18.618Z,100819.51
2018-02-09T23:35:48.905Z,100819.14
2018-02-09T23:38:26.707Z,100823.42
2018-02-09T23:41:00.544Z,100824.77
2018-02-09T23:43:34.396Z,100819.48
2018-02-09T23:46:08.795Z,100817.50
2018-02-09T23:48:39.045Z,100815.88
2018-02-09T23:51:09.545Z,100818.19
2018-02-09T23:53:39.836Z,100816.63
2018-02-09T23:56:09.508Z,100820.25
2018-02-09T23:58:39.988Z,100815.59
